Strona główna
METAR-TAF:

METAR-TAF

Lotnisko :

Port lotniczy Dżudda

Dżudda, Arabia Saudyjska

Szerokość geograficzna: 21-42N, Długość geograficzna: 039-11E, wysokość: 15 m

Aktualna obserwacja pogody

Raport powstał 59 minut temu, godzina 12:00 UTC
Wiatr 12 kt od zachód
Temperatura 36°C
Wilgotność 39%
Ciśnienie 1008 hPa
Widzialność 10 km lub więcej
Brak chmur poniżej 1500 m i brak chmur cumulonimbus

METAR: OEJN 161200Z 26012KT CAVOK 36/20 Q1008 NOSIG

czas: 15:59 (12:59 UTC)

Prognoza

Raport powstał 1 godzina i 59 minut temu, godzina 11:00 UTC
Prognoza ważna od 16 godzina 12 UTC do 17 godzina 18 UTC
Wiatr 14 kt od zachodnio-południowy zachód
Widzialność: 7000 m
Mało chmury na wysokości 4000 ft
Stopniowe zmiany
od 16 godzina 18 UTC do 16 godzina 20 UTC
Wiatr 10 kt od północno-północny wschód

TAF: OEJN 161100Z 1612/1718 24014KT 7000 FEW040 BECMG 1618/1620 03010KT

Obserwacja i prognoza pogody dla ponad 4000 lotnisk (raport METAR i TAF).

Dostępne stacje oznaczono żółtymi i czerwonymi punktami na mapie.

Najedź kursorem aby zobaczyć nazwę stacji.

Kliknij aby zobaczyć obserwacje i prognozy pogody.

Aby zmienić mapę: kliknij na zielony przycisk z czarnym krzyżykiem, aby powiększyć; na zielony przycisk z myślnikiem, aby pomniejszyć; na zielone strzałki, aby przejść do map sąsiednich.


METAR-TAF: